createdAt,value
2016-06-24T16:23:25.936Z,5
2016-06-24T16:23:35.990Z,8
2016-06-24T16:23:45.952Z,7
2016-06-24T16:23:55.970Z,7
2016-06-24T16:24:03.595Z,7
2016-06-24T16:24:14.780Z,7
2016-06-24T16:24:26.002Z,7
2016-06-24T16:24:36.054Z,6
2016-06-24T16:24:44.826Z,6
2016-06-24T16:24:54.846Z,6
2016-06-24T16:25:05.997Z,6
2016-06-24T16:25:14.817Z,6
2016-06-24T16:25:26.067Z,6
2016-06-24T16:25:36.090Z,6
2016-06-24T16:25:46.570Z,6
2016-06-24T16:25:56.066Z,6
2016-06-24T16:26:06.085Z,6
2016-06-24T16:26:13.658Z,6
2016-06-24T16:26:26.070Z,7
2016-06-24T16:26:36.096Z,7
2016-06-24T16:26:44.915Z,7
2016-06-24T16:26:56.114Z,7
2016-06-24T16:27:04.953Z,7
2016-06-24T16:27:16.112Z,8
2016-06-24T16:27:26.122Z,7
2016-06-24T16:27:36.117Z,7
2016-06-24T16:27:46.120Z,7
2016-06-24T16:27:56.139Z,7
2016-06-24T16:28:06.200Z,8
2016-06-24T16:28:16.139Z,6
2016-06-24T16:28:26.192Z,10
2016-06-24T16:28:36.163Z,11
2016-06-24T16:28:46.185Z,11
2016-06-24T16:28:55.048Z,12
2016-06-24T16:29:06.272Z,12
2016-06-24T16:29:16.199Z,13
2016-06-24T16:29:26.240Z,13
2016-06-24T16:29:36.260Z,14
2016-06-24T16:29:43.883Z,14
2016-06-24T16:29:56.201Z,15
2016-06-24T16:30:05.047Z,9
2016-06-24T16:30:13.831Z,10
2016-06-24T16:30:26.269Z,12
2016-06-24T16:30:35.046Z,8
2016-06-24T16:30:46.399Z,15
2016-06-24T16:30:56.270Z,14
2016-06-24T16:31:05.103Z,14
2016-06-24T16:31:15.145Z,15
2016-06-24T16:31:25.087Z,14
2016-06-24T16:31:36.321Z,14
2016-06-24T16:31:46.306Z,14
2016-06-24T16:31:55.665Z,14
2016-06-24T16:32:06.340Z,13
2016-06-24T16:32:16.305Z,13
2016-06-24T16:32:26.346Z,13
2016-06-24T16:32:35.142Z,13
2016-06-24T16:32:46.354Z,13
2016-06-24T16:32:55.150Z,13
2016-06-24T16:33:06.363Z,13
2016-06-24T16:33:16.423Z,13
2016-06-24T16:33:26.392Z,13
2016-06-24T16:33:36.445Z,13
2016-06-24T16:33:46.430Z,13
2016-06-24T16:33:55.187Z,13
2016-06-24T16:34:06.397Z,11
2016-06-24T16:34:15.194Z,12
2016-06-24T16:34:26.410Z,13
2016-06-24T16:34:36.501Z,13
2016-06-24T16:34:45.214Z,13
2016-06-24T16:34:55.246Z,13
2016-06-24T16:35:06.459Z,13
2016-06-24T16:35:16.464Z,13
2016-06-24T16:35:25.284Z,13
2016-06-24T16:35:35.265Z,13
2016-06-24T16:35:46.495Z,13
2016-06-24T16:35:55.297Z,13
2016-06-24T16:36:06.523Z,13
2016-06-24T16:36:16.528Z,13
2016-06-24T16:36:26.494Z,13
2016-06-24T16:36:36.526Z,12
2016-06-24T16:36:46.508Z,12
2016-06-24T16:36:56.590Z,12
2016-06-24T16:37:06.804Z,11
2016-06-24T16:37:16.549Z,11
2016-06-24T16:37:26.582Z,11
2016-06-24T16:37:36.568Z,11
2016-06-24T16:37:46.577Z,9
2016-06-24T16:37:55.353Z,10
2016-06-24T16:38:05.457Z,10
2016-06-24T16:38:16.597Z,9
2016-06-24T16:38:26.638Z,9
2016-06-24T16:38:36.597Z,8
2016-06-24T16:38:46.596Z,8
2016-06-24T16:38:56.640Z,8
2016-06-24T16:39:06.702Z,7
2016-06-24T16:39:15.457Z,7
2016-06-24T16:39:25.433Z,7
2016-06-24T16:39:35.459Z,7
2016-06-24T16:39:46.655Z,7
2016-06-24T16:39:55.471Z,7
2016-06-24T16:40:06.678Z,6
2016-06-24T16:40:16.690Z,6
2016-06-24T16:40:26.669Z,6
2016-06-24T16:40:35.500Z,6
2016-06-24T16:40:46.710Z,6
2016-06-24T16:40:55.540Z,4
2016-06-24T16:41:06.726Z,4
2016-06-24T16:41:15.490Z,5
2016-06-24T16:41:25.592Z,4
2016-06-24T16:41:35.549Z,4
2016-06-24T16:41:45.530Z,5
2016-06-24T16:41:56.766Z,5
2016-06-24T16:42:06.802Z,5
2016-06-24T16:42:15.647Z,5
2016-06-24T16:42:25.563Z,5
2016-06-24T16:42:36.771Z,5
2016-06-24T16:42:46.837Z,4
2016-06-24T16:42:56.818Z,4
2016-06-24T16:43:06.796Z,4
2016-06-24T16:43:16.831Z,4
2016-06-24T16:43:26.873Z,4
2016-06-24T16:43:36.793Z,4
2016-06-24T16:43:45.639Z,4
2016-06-24T16:43:56.832Z,4
2016-06-24T16:44:05.655Z,4
2016-06-24T16:44:16.860Z,4
2016-06-24T16:44:25.654Z,4
2016-06-24T16:44:34.439Z,4
2016-06-24T16:44:46.890Z,4
2016-06-24T16:44:56.881Z,4
2016-06-24T16:45:06.882Z,4
2016-06-24T16:45:15.686Z,4
2016-06-24T16:45:27.133Z,4
2016-06-24T16:45:37.347Z,4
2016-06-24T16:45:46.904Z,4
2016-06-24T16:45:55.712Z,5
2016-06-24T16:46:06.914Z,5
2016-06-24T16:46:14.532Z,5
2016-06-24T16:46:26.959Z,5
2016-06-24T16:46:36.980Z,5
2016-06-24T16:46:46.961Z,5
2016-06-24T16:46:56.983Z,5
2016-06-24T16:47:06.982Z,5
2016-06-24T16:47:17.029Z,6
2016-06-24T16:47:26.983Z,6
2016-06-24T16:47:37.023Z,6
2016-06-24T16:47:47.008Z,6
2016-06-24T16:47:55.794Z,7
2016-06-24T16:48:07.029Z,7
2016-06-24T16:48:17.042Z,7
2016-06-24T16:48:27.040Z,7
2016-06-24T16:48:37.029Z,8
2016-06-24T16:48:45.854Z,8
2016-06-24T16:48:55.854Z,8
2016-06-24T16:49:07.058Z,8
2016-06-24T16:49:17.146Z,8
2016-06-24T16:49:27.131Z,9
2016-06-24T16:49:35.900Z,9
2016-06-24T16:49:47.107Z,9
2016-06-24T16:49:57.090Z,9
2016-06-24T16:50:07.126Z,10
2016-06-24T16:50:17.188Z,10
2016-06-24T16:50:25.939Z,10
2016-06-24T16:50:37.188Z,11
2016-06-24T16:50:47.334Z,11
2016-06-24T16:50:57.331Z,11
2016-06-24T16:51:08.658Z,12
2016-06-24T16:51:18.483Z,12
2016-06-24T16:51:27.276Z,12
2016-06-24T16:51:37.181Z,13
2016-06-24T16:51:47.216Z,13
2016-06-24T16:51:56.001Z,13
2016-06-24T16:52:07.265Z,14
2016-06-24T16:52:17.236Z,14
2016-06-24T16:52:27.269Z,14
2016-06-24T16:52:37.226Z,14
2016-06-24T16:52:46.087Z,14
2016-06-24T16:52:56.033Z,15
2016-06-24T16:53:06.039Z,15
2016-06-24T16:53:16.081Z,15
2016-06-24T16:53:27.310Z,15
2016-06-24T16:53:37.283Z,15
2016-06-24T16:53:47.279Z,15
2016-06-24T16:53:57.318Z,15
2016-06-24T16:54:07.289Z,15
2016-06-24T16:54:14.895Z,15
2016-06-24T16:54:27.314Z,14
2016-06-24T16:54:37.590Z,14
2016-06-24T16:54:47.372Z,14
2016-06-24T16:54:57.378Z,14
2016-06-24T16:55:06.130Z,14
2016-06-24T16:55:17.357Z,14
2016-06-24T16:55:26.123Z,14
2016-06-24T16:55:36.169Z,14
2016-06-24T16:55:46.171Z,13
2016-06-24T16:55:56.420Z,13
2016-06-24T16:56:07.383Z,13
2016-06-24T16:56:17.371Z,13
2016-06-24T16:56:27.410Z,13
2016-06-24T16:56:36.180Z,12
2016-06-24T16:56:47.422Z,12
2016-06-24T16:56:57.420Z,12
2016-06-24T16:57:07.434Z,12
2016-06-24T16:57:17.447Z,11
2016-06-24T16:57:26.241Z,11
2016-06-24T16:57:37.480Z,11
2016-06-24T16:57:46.264Z,11
2016-06-24T16:57:57.461Z,10
2016-06-24T16:58:06.255Z,10
2016-06-24T16:58:17.504Z,10
2016-06-24T16:58:27.459Z,10
2016-06-24T16:58:37.509Z,10
2016-06-24T16:58:46.289Z,10
2016-06-24T16:58:57.538Z,10
2016-06-24T16:59:07.497Z,10
2016-06-24T16:59:17.523Z,10
2016-06-24T16:59:26.313Z,10
2016-06-24T16:59:36.339Z,10
2016-06-24T16:59:47.531Z,10
2016-06-24T16:59:55.149Z,10
2016-06-24T17:00:06.336Z,10
2016-06-24T17:00:17.537Z,10
2016-06-24T17:00:27.562Z,10
2016-06-24T17:00:37.547Z,9
2016-06-24T17:00:47.590Z,9
2016-06-24T17:00:57.587Z,9
2016-06-24T17:01:07.592Z,8
2016-06-24T17:01:17.614Z,8
2016-06-24T17:01:27.615Z,8
2016-06-24T17:01:37.597Z,7
2016-06-24T17:01:47.611Z,7
2016-06-24T17:01:57.625Z,6
2016-06-24T17:02:07.681Z,6
2016-06-24T17:02:17.673Z,5
2016-06-24T17:02:27.709Z,5
2016-06-24T17:02:37.654Z,5
2016-06-24T17:02:46.451Z,5
2016-06-24T17:02:57.668Z,4
2016-06-24T17:03:07.678Z,4
2016-06-24T17:03:16.458Z,4
2016-06-24T17:03:26.481Z,4
2016-06-24T17:03:37.709Z,4
2016-06-24T17:03:46.539Z,4
2016-06-24T17:03:57.725Z,4
2016-06-24T17:04:07.722Z,4
2016-06-24T17:04:17.711Z,4
2016-06-24T17:04:27.737Z,4
2016-06-24T17:04:37.741Z,4
2016-06-24T17:04:47.734Z,4
2016-06-24T17:04:57.787Z,4
2016-06-24T17:05:07.761Z,4
2016-06-24T17:05:16.558Z,3
2016-06-24T17:05:27.763Z,3
2016-06-24T17:05:37.782Z,3
2016-06-24T17:05:46.584Z,4
2016-06-24T17:05:57.835Z,4
2016-06-24T17:06:07.783Z,4
2016-06-24T17:06:17.788Z,4
2016-06-24T17:06:27.804Z,4
2016-06-24T17:06:37.821Z,4
2016-06-24T17:06:47.813Z,4
2016-06-24T17:06:57.842Z,4
2016-06-24T17:07:07.849Z,4
2016-06-24T17:07:16.626Z,4
2016-06-24T17:07:27.872Z,4
2016-06-24T17:07:37.892Z,4
2016-06-24T17:07:46.675Z,4
2016-06-24T17:07:57.860Z,4
2016-06-24T17:08:07.886Z,4
2016-06-24T17:08:16.886Z,4
2016-06-24T17:08:27.907Z,4
2016-06-24T17:08:36.764Z,4
2016-06-24T17:08:47.936Z,4
2016-06-24T17:08:58.010Z,4
2016-06-24T17:09:07.921Z,4
2016-06-24T17:09:17.915Z,4
2016-06-24T17:09:27.951Z,4
2016-06-24T17:09:35.844Z,4
2016-06-24T17:09:46.814Z,3
2016-06-24T17:09:56.808Z,3
2016-06-24T17:10:07.959Z,3
2016-06-24T17:10:18.063Z,3
2016-06-24T17:10:26.778Z,3
2016-06-24T17:10:36.789Z,3
2016-06-24T17:10:48.009Z,3
2016-06-24T17:10:58.043Z,3
2016-06-24T17:11:06.848Z,3
2016-06-24T17:11:18.082Z,3
2016-06-24T17:11:28.050Z,3
2016-06-24T17:11:36.841Z,3
2016-06-24T17:11:48.041Z,2
2016-06-24T17:11:58.070Z,2
2016-06-24T17:12:08.066Z,2
2016-06-24T17:12:18.083Z,2
2016-06-24T17:12:28.089Z,2
2016-06-24T17:12:36.908Z,2
2016-06-24T17:12:48.095Z,2
2016-06-24T17:12:58.088Z,2
2016-06-24T17:13:08.094Z,2
2016-06-24T17:13:18.105Z,1
2016-06-24T17:13:26.917Z,1
2016-06-24T17:13:38.106Z,1
2016-06-24T17:13:48.133Z,1
2016-06-24T17:13:56.921Z,1
2016-06-24T17:14:08.180Z,1
2016-06-24T17:14:17.299Z,1
2016-06-24T17:14:28.156Z,1
2016-06-24T17:14:38.184Z,1
2016-06-24T17:14:48.253Z,1
2016-06-24T17:14:56.962Z,1
2016-06-24T17:15:08.195Z,1
2016-06-24T17:15:17.017Z,1
2016-06-24T17:15:28.263Z,1
2016-06-24T17:15:37.011Z,1
2016-06-24T17:15:47.026Z,0
2016-06-24T17:15:58.240Z,0
2016-06-24T17:16:08.270Z,0
2016-06-24T17:16:18.253Z,0
2016-06-24T17:16:28.331Z,0
2016-06-24T17:16:37.054Z,0
2016-06-24T17:16:48.258Z,0
2016-06-24T17:16:57.059Z,0
2016-06-24T17:17:08.283Z,0
2016-06-24T17:17:18.302Z,0
2016-06-24T17:17:28.269Z,0
2016-06-24T17:17:37.102Z,0
2016-06-24T17:17:47.142Z,0
2016-06-24T17:17:58.298Z,0
2016-06-24T17:18:08.335Z,0
2016-06-24T17:18:17.143Z,0
2016-06-24T17:18:28.438Z,0
2016-06-24T17:18:38.354Z,0
2016-06-24T17:18:47.370Z,0
2016-06-24T17:18:58.415Z,0
2016-06-24T17:19:08.386Z,0
2016-06-24T17:19:18.413Z,0
2016-06-24T17:19:28.366Z,0
2016-06-24T17:19:37.265Z,0
2016-06-24T17:19:48.399Z,0
2016-06-24T17:19:55.993Z,0
2016-06-24T17:20:07.210Z,0
2016-06-24T17:20:18.647Z,0
2016-06-24T17:20:28.430Z,0
2016-06-24T17:20:38.509Z,0
2016-06-24T17:20:49.820Z,0
2016-06-24T17:20:58.468Z,0
2016-06-24T17:21:07.307Z,0
2016-06-24T17:21:18.525Z,0
2016-06-24T17:21:28.463Z,0
2016-06-24T17:21:39.135Z,0
2016-06-24T17:21:48.491Z,0
2016-06-24T17:21:58.578Z,0
2016-06-24T17:22:08.689Z,0
2016-06-24T17:22:17.362Z,0
2016-06-24T17:22:27.332Z,0
2016-06-24T17:22:37.334Z,0
2016-06-24T17:22:48.526Z,0
2016-06-24T17:22:58.599Z,0
2016-06-24T17:23:08.542Z,0
2016-06-24T17:23:17.342Z,0
2016-06-24T17:23:26.147Z,0
2016-06-24T17:23:38.600Z,1
2016-06-24T17:23:46.167Z,1
2016-06-24T17:23:58.634Z,1
2016-06-24T17:24:08.923Z,1
2016-06-24T17:24:18.261Z,1
2016-06-24T17:24:29.216Z,1
2016-06-24T17:24:38.624Z,1
2016-06-24T17:24:47.420Z,1
2016-06-24T17:24:57.545Z,1
2016-06-24T17:25:09.048Z,1
2016-06-24T17:25:18.841Z,1
2016-06-24T17:25:28.641Z,1
2016-06-24T17:25:38.645Z,1
2016-06-24T17:25:47.488Z,1
2016-06-24T17:25:56.267Z,1
2016-06-24T17:26:08.717Z,1
2016-06-24T17:26:18.678Z,1
2016-06-24T17:26:28.773Z,1
2016-06-24T17:26:38.726Z,1
2016-06-24T17:26:48.741Z,1
2016-06-24T17:26:58.697Z,1
2016-06-24T17:27:08.738Z,1
2016-06-24T17:27:18.705Z,1
2016-06-24T17:27:27.530Z,1
2016-06-24T17:27:38.778Z,1
2016-06-24T17:27:48.791Z,1
2016-06-24T17:27:58.743Z,1
2016-06-24T17:28:08.867Z,1
2016-06-24T17:28:17.557Z,1
2016-06-24T17:28:28.751Z,1
2016-06-24T17:28:38.802Z,1
2016-06-24T17:28:48.811Z,1
2016-06-24T17:28:57.591Z,1
2016-06-24T17:29:06.410Z,1
2016-06-24T17:29:18.791Z,1
2016-06-24T17:29:28.838Z,1
2016-06-24T17:29:38.847Z,1
2016-06-24T17:29:48.863Z,1
2016-06-24T17:29:58.848Z,1
2016-06-24T17:30:07.637Z,1
2016-06-24T17:30:17.645Z,1
2016-06-24T17:30:28.850Z,1
2016-06-24T17:30:38.865Z,1
2016-06-24T17:30:47.644Z,1
2016-06-24T17:30:58.875Z,1
2016-06-24T17:31:07.683Z,1
2016-06-24T17:31:18.935Z,1
2016-06-24T17:31:27.705Z,1
2016-06-24T17:31:38.925Z,1
2016-06-24T17:31:48.907Z,1
2016-06-24T17:31:58.899Z,1
2016-06-24T17:32:08.965Z,1
2016-06-24T17:32:19.173Z,1
2016-06-24T17:32:28.956Z,1
2016-06-24T17:32:38.962Z,1
2016-06-24T17:32:48.969Z,1
2016-06-24T17:32:59.024Z,1
2016-06-24T17:33:08.983Z,1
2016-06-24T17:33:18.992Z,1
2016-06-24T17:33:28.995Z,1
2016-06-24T17:33:39.042Z,1
2016-06-24T17:33:48.993Z,1
2016-06-24T17:33:59.004Z,1
2016-06-24T17:34:09.047Z,1
2016-06-24T17:34:19.037Z,1
2016-06-24T17:34:27.878Z,1
2016-06-24T17:34:37.838Z,1
2016-06-24T17:34:49.030Z,1
2016-06-24T17:34:59.058Z,1
2016-06-24T17:35:09.062Z,1
2016-06-24T17:35:19.068Z,1
2016-06-24T17:35:29.057Z,1
2016-06-24T17:35:36.710Z,1
2016-06-24T17:35:49.103Z,1
2016-06-24T17:35:57.920Z,1
2016-06-24T17:36:06.712Z,1
2016-06-24T17:36:17.891Z,1
2016-06-24T17:36:29.122Z,1
2016-06-24T17:36:39.125Z,1
2016-06-24T17:36:49.119Z,1
2016-06-24T17:36:59.137Z,1
2016-06-24T17:37:09.125Z,1
2016-06-24T17:37:16.749Z,1
2016-06-24T17:37:29.172Z,1
2016-06-24T17:37:39.170Z,1
2016-06-24T17:37:49.224Z,1
2016-06-24T17:37:59.182Z,1
2016-06-24T17:38:09.570Z,1
2016-06-24T17:38:19.214Z,1
2016-06-24T17:38:29.234Z,1
2016-06-24T17:38:39.227Z,1
2016-06-24T17:38:49.244Z,1
2016-06-24T17:38:58.069Z,1
2016-06-24T17:39:09.254Z,1
2016-06-24T17:39:19.239Z,1
2016-06-24T17:39:29.301Z,1
2016-06-24T17:39:39.272Z,1
2016-06-24T17:39:49.255Z,1
2016-06-24T17:39:59.255Z,1
2016-06-24T17:40:06.860Z,1
2016-06-24T17:40:19.290Z,1
2016-06-24T17:40:29.307Z,1
2016-06-24T17:40:39.297Z,1
2016-06-24T17:40:49.327Z,1
2016-06-24T17:40:59.309Z,1
2016-06-24T17:41:09.296Z,1
2016-06-24T17:41:19.323Z,1
2016-06-24T17:41:28.123Z,1
2016-06-24T17:41:39.344Z,1
2016-06-24T17:41:49.327Z,1
2016-06-24T17:41:59.338Z,1
2016-06-24T17:42:08.162Z,1
2016-06-24T17:42:19.368Z,1
2016-06-24T17:42:28.162Z,1
2016-06-24T17:42:39.362Z,1
2016-06-24T17:42:49.392Z,1
2016-06-24T17:42:58.195Z,1
2016-06-24T17:43:09.433Z,1
2016-06-24T17:43:19.657Z,1
2016-06-24T17:43:29.414Z,1
2016-06-24T17:43:39.455Z,1
2016-06-24T17:43:48.213Z,1
2016-06-24T17:43:59.451Z,1
2016-06-24T17:44:09.460Z,1
2016-06-24T17:44:19.505Z,1
2016-06-24T17:44:29.482Z,1
2016-06-24T17:44:38.287Z,1
2016-06-24T17:44:49.500Z,1
2016-06-24T17:44:59.486Z,1
2016-06-24T17:45:08.372Z,1
2016-06-24T17:45:19.520Z,1
2016-06-24T17:45:29.513Z,1
2016-06-24T17:45:38.303Z,1
2016-06-24T17:45:49.535Z,1
2016-06-24T17:45:59.556Z,1
2016-06-24T17:46:09.514Z,1
2016-06-24T17:46:19.564Z,1
2016-06-24T17:46:29.522Z,1
2016-06-24T17:46:39.548Z,1
2016-06-24T17:46:48.340Z,1
2016-06-24T17:46:59.581Z,1
2016-06-24T17:47:09.569Z,1
2016-06-24T17:47:18.411Z,1
2016-06-24T17:47:29.576Z,1
2016-06-24T17:47:39.602Z,1
2016-06-24T17:47:48.382Z,1
2016-06-24T17:47:59.603Z,1
2016-06-24T17:48:08.396Z,1
2016-06-24T17:48:19.638Z,1
2016-06-24T17:48:28.482Z,1
2016-06-24T17:48:36.031Z,1
2016-06-24T17:48:49.640Z,1
2016-06-24T17:48:59.691Z,1
2016-06-24T17:49:09.687Z,1
2016-06-24T17:49:19.669Z,1
2016-06-24T17:49:29.707Z,1
2016-06-24T17:49:38.489Z,1
2016-06-24T17:49:47.398Z,1
2016-06-24T17:49:58.473Z,1
2016-06-24T17:50:08.483Z,1
2016-06-24T17:50:19.755Z,1
2016-06-24T17:50:29.755Z,1
2016-06-24T17:50:39.716Z,1
2016-06-24T17:50:49.754Z,1
2016-06-24T17:50:58.660Z,1
2016-06-24T17:51:09.773Z,1
2016-06-24T17:51:19.763Z,0
2016-06-24T17:51:29.774Z,0
2016-06-24T17:51:39.766Z,0
2016-06-24T17:51:49.770Z,0
2016-06-24T17:51:59.774Z,0
2016-06-24T17:52:09.778Z,0
2016-06-24T17:52:18.594Z,0
2016-06-24T17:52:28.618Z,0
2016-06-24T17:52:38.594Z,0
2016-06-24T17:52:48.606Z,0
2016-06-24T17:52:58.631Z,0
2016-06-24T17:53:09.829Z,0
2016-06-24T17:53:18.626Z,0
2016-06-24T17:53:28.685Z,0
2016-06-24T17:53:38.656Z,0
2016-06-24T17:53:49.870Z,0
2016-06-24T17:53:58.670Z,1
2016-06-24T17:54:09.882Z,1
2016-06-24T17:54:19.886Z,1
2016-06-24T17:54:29.925Z,1
2016-06-24T17:54:39.950Z,1
2016-06-24T17:54:47.512Z,1
2016-06-24T17:54:59.939Z,1
2016-06-24T17:55:09.920Z,1
2016-06-24T17:55:18.964Z,1
2016-06-24T17:55:29.950Z,1
2016-06-24T17:55:40.061Z,1
2016-06-24T17:55:49.941Z,1
2016-06-24T17:55:59.976Z,1
2016-06-24T17:56:09.971Z,1
2016-06-24T17:56:18.783Z,1
2016-06-24T17:56:28.817Z,1
2016-06-24T17:56:40.064Z,1
2016-06-24T17:56:48.798Z,1
2016-06-24T17:56:58.821Z,1
2016-06-24T17:57:08.843Z,1
2016-06-24T17:57:18.882Z,1
2016-06-24T17:57:30.014Z,1
2016-06-24T17:57:38.823Z,1
2016-06-24T17:57:48.860Z,1
2016-06-24T17:58:00.272Z,1
2016-06-24T17:58:10.029Z,1
2016-06-24T17:58:18.882Z,1
2016-06-24T17:58:28.859Z,1
2016-06-24T17:58:40.093Z,1
2016-06-24T17:58:50.076Z,1
2016-06-24T17:59:00.084Z,1
2016-06-24T17:59:10.088Z,1
2016-06-24T17:59:20.086Z,1
2016-06-24T17:59:30.143Z,1
2016-06-24T17:59:38.902Z,1
2016-06-24T17:59:50.106Z,1
2016-06-24T18:00:00.167Z,1
2016-06-24T18:00:10.143Z,1
2016-06-24T18:00:20.133Z,1
2016-06-24T18:00:30.143Z,1
2016-06-24T18:00:38.933Z,1
2016-06-24T18:00:50.178Z,1
2016-06-24T18:01:00.168Z,1
2016-06-24T18:01:10.200Z,1
2016-06-24T18:01:20.271Z,1
2016-06-24T18:01:30.207Z,1
2016-06-24T18:01:39.081Z,1
2016-06-24T18:01:50.207Z,1
2016-06-24T18:01:59.119Z,1
2016-06-24T18:02:09.297Z,1
2016-06-24T18:02:20.261Z,1
2016-06-24T18:02:30.353Z,1
2016-06-24T18:02:40.227Z,1
2016-06-24T18:02:50.256Z,1
2016-06-24T18:03:00.253Z,1
2016-06-24T18:03:10.298Z,1
2016-06-24T18:03:20.277Z,1
2016-06-24T18:03:30.297Z,1
2016-06-24T18:03:39.063Z,1
2016-06-24T18:03:50.325Z,1
2016-06-24T18:04:00.284Z,1
2016-06-24T18:04:10.343Z,1
2016-06-24T18:04:19.099Z,1
2016-06-24T18:04:30.375Z,1
2016-06-24T18:04:40.322Z,1
2016-06-24T18:04:50.353Z,1
2016-06-24T18:05:00.314Z,1
2016-06-24T18:05:10.352Z,1
2016-06-24T18:05:19.145Z,1
2016-06-24T18:05:29.188Z,1
2016-06-24T18:05:40.370Z,1
2016-06-24T18:05:50.477Z,1
2016-06-24T18:06:00.395Z,1
2016-06-24T18:06:09.178Z,1
2016-06-24T18:06:20.429Z,1
2016-06-24T18:06:30.446Z,1
2016-06-24T18:06:40.383Z,1
2016-06-24T18:06:49.211Z,1
2016-06-24T18:07:00.420Z,1
2016-06-24T18:07:08.013Z,1
2016-06-24T18:07:19.233Z,1
2016-06-24T18:07:30.452Z,1
2016-06-24T18:07:39.343Z,1
2016-06-24T18:07:50.504Z,1
2016-06-24T18:08:00.454Z,1
2016-06-24T18:08:10.483Z,1
2016-06-24T18:08:20.489Z,1
2016-06-24T18:08:29.275Z,1
2016-06-24T18:08:40.490Z,1
2016-06-24T18:08:50.504Z,1
2016-06-24T18:08:59.319Z,1
2016-06-24T18:09:10.521Z,1
2016-06-24T18:09:20.571Z,1
2016-06-24T18:09:30.538Z,1
2016-06-24T18:09:40.570Z,1
2016-06-24T18:09:49.389Z,1
2016-06-24T18:10:00.630Z,1
2016-06-24T18:10:10.600Z,1
2016-06-24T18:10:20.791Z,1
2016-06-24T18:10:29.385Z,1
2016-06-24T18:10:40.614Z,1
2016-06-24T18:10:50.621Z,1
2016-06-24T18:10:59.465Z,1
2016-06-24T18:11:10.617Z,1
2016-06-24T18:11:18.211Z,1
2016-06-24T18:11:30.642Z,1
2016-06-24T18:11:40.625Z,1
2016-06-24T18:11:50.644Z,1
2016-06-24T18:12:00.683Z,1
2016-06-24T18:12:09.470Z,1
2016-06-24T18:12:20.678Z,1
2016-06-24T18:12:29.464Z,1
2016-06-24T18:12:40.685Z,1
2016-06-24T18:12:50.694Z,1
2016-06-24T18:13:00.685Z,1
2016-06-24T18:13:10.703Z,1
2016-06-24T18:13:20.685Z,1
2016-06-24T18:13:30.690Z,1
2016-06-24T18:13:40.793Z,1
2016-06-24T18:13:50.727Z,1
2016-06-24T18:13:59.521Z,1
2016-06-24T18:14:10.731Z,1
2016-06-24T18:14:20.780Z,1
2016-06-24T18:14:30.881Z,1
2016-06-24T18:14:40.784Z,1
2016-06-24T18:14:50.751Z,1
2016-06-24T18:15:00.781Z,1
2016-06-24T18:15:10.770Z,1
2016-06-24T18:15:19.563Z,1
2016-06-24T18:15:29.589Z,1
2016-06-24T18:15:40.796Z,1
2016-06-24T18:15:50.826Z,1
2016-06-24T18:16:00.821Z,1
2016-06-24T18:16:08.410Z,1
2016-06-24T18:16:20.834Z,1
2016-06-24T18:16:30.875Z,1
2016-06-24T18:16:39.618Z,0
2016-06-24T18:16:50.835Z,0
2016-06-24T18:17:00.859Z,0
2016-06-24T18:17:10.876Z,0
2016-06-24T18:17:20.866Z,0
2016-06-24T18:17:30.918Z,0
2016-06-24T18:17:40.901Z,0
2016-06-24T18:17:50.909Z,0
2016-06-24T18:18:00.884Z,0
2016-06-24T18:18:10.959Z,0
2016-06-24T18:18:20.891Z,0
2016-06-24T18:18:29.748Z,0
2016-06-24T18:18:40.933Z,0
2016-06-24T18:18:50.938Z,0
2016-06-24T18:18:59.762Z,0
2016-06-24T18:19:10.935Z,0
2016-06-24T18:19:20.941Z,0
2016-06-24T18:19:30.996Z,0
2016-06-24T18:19:39.803Z,0
2016-06-24T18:19:50.984Z,0
2016-06-24T18:20:01.070Z,0
2016-06-24T18:20:11.014Z,0
2016-06-24T18:20:20.985Z,0
2016-06-24T18:20:31.082Z,0
2016-06-24T18:20:41.120Z,0
2016-06-24T18:20:51.058Z,0
2016-06-24T18:20:59.841Z,0
2016-06-24T18:21:11.059Z,0
2016-06-24T18:21:19.859Z,0
2016-06-24T18:21:29.862Z,0
2016-06-24T18:21:41.117Z,0
2016-06-24T18:21:51.091Z,0
2016-06-24T18:22:01.068Z,0
2016-06-24T18:22:11.107Z,0
2016-06-24T18:22:21.123Z,0
2016-06-24T18:22:31.092Z,0
2016-06-24T18:22:41.110Z,0
2016-06-24T18:22:51.119Z,0
2016-06-24T18:23:01.185Z,0
2016-06-24T18:23:11.106Z,0
2016-06-24T18:23:21.174Z,0
2016-06-24T18:23:29.942Z,0
2016-06-24T18:23:39.959Z,0
2016-06-24T18:23:49.928Z,0
2016-06-24T18:24:01.161Z,0
2016-06-24T18:24:11.162Z,0
2016-06-24T18:24:21.226Z,0
2016-06-24T18:24:29.966Z,0
2016-06-24T18:24:41.177Z,0
2016-06-24T18:24:51.188Z,0
2016-06-24T18:25:01.215Z,0
2016-06-24T18:25:11.226Z,0
2016-06-24T18:25:21.291Z,0
2016-06-24T18:25:30.008Z,0
2016-06-24T18:25:40.032Z,0
2016-06-24T18:25:51.249Z,0
2016-06-24T18:26:00.045Z,0
2016-06-24T18:26:11.456Z,0
2016-06-24T18:26:21.266Z,0
2016-06-24T18:26:31.281Z,0
2016-06-24T18:26:41.259Z,0
2016-06-24T18:26:51.464Z,0
2016-06-24T18:27:01.319Z,0
2016-06-24T18:27:11.306Z,0
2016-06-24T18:27:18.894Z,0
2016-06-24T18:27:30.107Z,0
2016-06-24T18:27:41.306Z,0
2016-06-24T18:27:50.104Z,0
2016-06-24T18:28:01.324Z,0
2016-06-24T18:28:11.363Z,0
2016-06-24T18:28:21.356Z,0
2016-06-24T18:28:30.137Z,0
2016-06-24T18:28:40.153Z,0
2016-06-24T18:28:50.159Z,0
2016-06-24T18:29:01.394Z,0
2016-06-24T18:29:11.386Z,0
2016-06-24T18:29:21.385Z,0
2016-06-24T18:29:31.393Z,0
2016-06-24T18:29:41.403Z,0
2016-06-24T18:29:51.399Z,0
2016-06-24T18:30:01.412Z,0
2016-06-24T18:30:11.489Z,0
2016-06-24T18:30:20.216Z,0
2016-06-24T18:30:31.434Z,0
2016-06-24T18:30:41.430Z,0
2016-06-24T18:30:51.451Z,0
2016-06-24T18:31:00.248Z,0
2016-06-24T18:31:11.475Z,0
2016-06-24T18:31:21.448Z,0
2016-06-24T18:31:31.491Z,0
2016-06-24T18:31:41.477Z,0
2016-06-24T18:31:51.483Z,0
2016-06-24T18:32:01.481Z,0
2016-06-24T18:32:10.302Z,0
2016-06-24T18:32:21.593Z,0
2016-06-24T18:32:31.535Z,0
2016-06-24T18:32:40.329Z,0
2016-06-24T18:32:51.533Z,0
2016-06-24T18:33:01.542Z,0
2016-06-24T18:33:11.568Z,0
2016-06-24T18:33:20.347Z,0
2016-06-24T18:33:30.373Z,0
2016-06-24T18:33:41.591Z,0
2016-06-24T18:33:51.585Z,0
2016-06-24T18:34:00.499Z,0
2016-06-24T18:34:11.624Z,0
2016-06-24T18:34:20.390Z,0
2016-06-24T18:34:31.597Z,0
2016-06-24T18:34:41.634Z,0
2016-06-24T18:34:50.420Z,0
2016-06-24T18:35:01.689Z,0
2016-06-24T18:35:11.621Z,0
2016-06-24T18:35:21.662Z,0
2016-06-24T18:35:31.654Z,0
2016-06-24T18:35:41.655Z,0
2016-06-24T18:35:51.662Z,0
2016-06-24T18:36:01.689Z,0
2016-06-24T18:36:10.483Z,0
2016-06-24T18:36:21.676Z,0
2016-06-24T18:36:30.532Z,0
2016-06-24T18:36:41.704Z,0
2016-06-24T18:36:51.694Z,0
2016-06-24T18:37:00.519Z,0
2016-06-24T18:37:11.726Z,0
2016-06-24T18:37:20.524Z,0
2016-06-24T18:37:31.754Z,0
2016-06-24T18:37:40.536Z,0
2016-06-24T18:37:51.756Z,0
2016-06-24T18:38:01.775Z,0
2016-06-24T18:38:10.547Z,0
2016-06-24T18:38:19.372Z,0
2016-06-24T18:38:31.977Z,0
2016-06-24T18:38:41.762Z,0
2016-06-24T18:38:51.790Z,0
2016-06-24T18:39:00.615Z,0
2016-06-24T18:39:10.598Z,0
2016-06-24T18:39:21.813Z,0
2016-06-24T18:39:30.635Z,0
2016-06-24T18:39:41.838Z,0
2016-06-24T18:39:50.657Z,0
2016-06-24T18:40:00.611Z,0
2016-06-24T18:40:11.941Z,0
2016-06-24T18:40:21.864Z,0
2016-06-24T18:40:31.853Z,0
2016-06-24T18:40:41.871Z,0
2016-06-24T18:40:51.873Z,0
2016-06-24T18:41:01.902Z,0
2016-06-24T18:41:11.889Z,0
2016-06-24T18:41:20.723Z,0
2016-06-24T18:41:31.917Z,0
2016-06-24T18:41:41.891Z,0
2016-06-24T18:41:51.925Z,0
2016-06-24T18:42:01.926Z,0
2016-06-24T18:42:10.715Z,0
2016-06-24T18:42:20.969Z,0
2016-06-24T18:42:31.940Z,0
2016-06-24T18:42:41.966Z,0
2016-06-24T18:42:51.965Z,0
2016-06-24T18:43:01.952Z,0
2016-06-24T18:43:11.997Z,0
2016-06-24T18:43:21.980Z,0
2016-06-24T18:43:30.795Z,0
2016-06-24T18:43:41.986Z,0
2016-06-24T18:43:49.594Z,0
2016-06-24T18:44:02.043Z,0
2016-06-24T18:44:10.803Z,0
2016-06-24T18:44:22.027Z,0
2016-06-24T18:44:32.022Z,0
2016-06-24T18:44:38.431Z,0
2016-06-24T18:44:52.079Z,0
2016-06-24T18:45:02.050Z,0
2016-06-24T18:45:12.062Z,0
2016-06-24T18:45:22.077Z,0
2016-06-24T18:45:32.107Z,0
2016-06-24T18:45:40.918Z,0
2016-06-24T18:45:52.095Z,0
2016-06-24T18:46:02.098Z,0
2016-06-24T18:46:12.110Z,0
2016-06-24T18:46:20.963Z,0
2016-06-24T18:46:32.113Z,0
2016-06-24T18:46:40.910Z,0
2016-06-24T18:46:52.115Z,0
2016-06-24T18:47:02.170Z,0
2016-06-24T18:47:12.137Z,0
2016-06-24T18:47:22.211Z,0
2016-06-24T18:47:32.154Z,0
2016-06-24T18:47:42.187Z,0
2016-06-24T18:47:52.169Z,0
2016-06-24T18:48:02.247Z,0
2016-06-24T18:48:12.226Z,0
2016-06-24T18:48:21.060Z,0
2016-06-24T18:48:30.987Z,0
2016-06-24T18:48:42.199Z,0
2016-06-24T18:48:51.027Z,0
2016-06-24T18:49:02.258Z,0
2016-06-24T18:49:12.250Z,0
2016-06-24T18:49:22.354Z,0
2016-06-24T18:49:31.031Z,0
2016-06-24T18:49:41.116Z,0
2016-06-24T18:49:52.258Z,0
2016-06-24T18:50:02.306Z,0
2016-06-24T18:50:12.315Z,0
2016-06-24T18:50:21.080Z,0
2016-06-24T18:50:32.298Z,0